Terminal Aerodrome Forecast
Issued by NWS Tiyan, Guam

Home | Current Version | Previous Version | Text Only | Print | Product List | Glossary On
Versions: 1 2 3 4 5 6 7 8 9 10 11 12 13 14 15 16 17 18 19 20 21 22 23 24 25 26
000
FTPQ31 PGUM 221128
TAFGUM
TAF
PGUM 221128Z 2212/2318 04012KT P6SM VCSH FEW018 SCT030 BKN100
      TEMPO 2212/2216 05012G22KT -SHRA SCT015 BKN028 BKN060=

USA.gov is the U.S. government's official web portal to all federal, state and local government web resources and services.